ZRH weather

Z├╝rich Airport
Zurich, Canton of Zurich, Switzerland

Public forecast

Using degrees Celsius for public forecast. Weather courtesy of forecast.io.

METAR (pilot weather report)

Retrieved 2017/09/25 07:20 UTC (0 seconds ago):

LSZH 250720Z VRB02KT 4000 BR FEW001 BKN004 11/10 Q1020 NOSIG

TAF (pilot weather forecast)

Retrieved 2017/09/25 06:36 UTC (37 minutes ago):

TAF LSZH 250525Z 2506/2612 VRB03KT 7000 MIFG NSC TX19/2514Z TN07/2506Z TN09/2603Z BECMG 2506/2508 3000 BCFG PROB40 2506/2508 1200 PRFG BKN003 PROB30 2506/2508 0600 FG VV002 BECMG 2507/2510 05005KT 9999 FEW010 TEMPO 2510/2520 CAVOK BECMG 2517/2520 VRB03KT PROB40 TEMPO 2520/2601 SHRA BECMG 2600/2603 3000 BCFG PROB40 2603/2607 1200 PRFG BKN003 PROB30 2604/2607 0500 FG VV002 BECMG 2607/2610 9999 FEW015